createdAt,value
2022-10-30T00:01:23.263Z,49.47
2022-10-30T00:03:51.311Z,49.69
2022-10-30T00:06:20.455Z,49.55
2022-10-30T00:08:48.586Z,49.41
2022-10-30T00:11:16.619Z,49.41
2022-10-30T00:13:45.098Z,49.36
2022-10-30T00:16:13.264Z,49.03
2022-10-30T00:18:43.340Z,49.29
2022-10-30T00:21:15.556Z,49.21
2022-10-30T00:23:52.031Z,49.26
2022-10-30T00:26:22.999Z,49.33
2022-10-30T00:28:52.909Z,49.16
2022-10-30T00:31:21.077Z,49.28
2022-10-30T00:33:54.682Z,49.20
2022-10-30T00:36:23.486Z,48.83
2022-10-30T00:38:51.685Z,49.16
2022-10-30T00:41:24.567Z,49.10
2022-10-30T00:43:53.060Z,49.10
2022-10-30T00:46:41.134Z,49.29
2022-10-30T00:49:20.016Z,49.34
2022-10-30T00:51:54.965Z,49.57
2022-10-30T00:54:23.860Z,49.57
2022-10-30T00:56:53.770Z,49.55
2022-10-30T00:59:30.847Z,49.64
2022-10-30T01:02:01.433Z,49.61
2022-10-30T01:04:33.111Z,49.43
2022-10-30T01:07:11.033Z,49.79
2022-10-30T01:09:40.818Z,49.74
2022-10-30T01:12:09.497Z,49.95
2022-10-30T01:14:48.360Z,49.83
2022-10-30T01:17:20.546Z,49.75
2022-10-30T01:19:57.550Z,49.81
2022-10-30T01:23:15.871Z,49.74
2022-10-30T01:26:39.854Z,49.75
2022-10-30T01:29:33.532Z,49.88
2022-10-30T01:32:27.995Z,50.16
2022-10-30T01:35:08.447Z,49.66
2022-10-30T01:37:58.300Z,49.73
2022-10-30T01:40:27.054Z,49.04
2022-10-30T01:42:58.591Z,49.09
2022-10-30T01:45:48.045Z,49.17
2022-10-30T01:48:53.105Z,48.75
2022-10-30T01:52:03.521Z,48.75
2022-10-30T01:54:56.098Z,48.33
2022-10-30T01:57:50.346Z,48.50
2022-10-30T02:00:20.581Z,47.68
2022-10-30T02:02:51.649Z,47.60
2022-10-30T02:05:44.209Z,47.74
2022-10-30T02:08:12.532Z,47.13
2022-10-30T02:10:44.714Z,46.96
2022-10-30T02:13:13.138Z,46.92
2022-10-30T02:15:44.006Z,46.98
2022-10-30T02:18:12.205Z,46.75
2022-10-30T02:20:41.360Z,46.72
2022-10-30T02:23:13.629Z,46.41
2022-10-30T02:25:41.833Z,46.31
2022-10-30T02:28:11.235Z,46.10
2022-10-30T02:30:44.229Z,46.01
2022-10-30T02:33:12.585Z,46.08
2022-10-30T02:35:40.660Z,45.79
2022-10-30T02:38:09.228Z,46.00
2022-10-30T02:40:37.313Z,46.08
2022-10-30T02:43:05.368Z,46.23
2022-10-30T02:45:33.600Z,46.05
2022-10-30T02:48:02.285Z,46.26
2022-10-30T02:50:31.684Z,46.14
2022-10-30T02:53:00.380Z,46.25
2022-10-30T02:55:29.258Z,46.57
2022-10-30T02:57:57.485Z,46.78
2022-10-30T03:00:26.024Z,46.82
2022-10-30T03:02:57.737Z,47.14
2022-10-30T03:05:25.925Z,47.44
2022-10-30T03:07:55.504Z,48.13
2022-10-30T03:10:24.115Z,48.31
2022-10-30T03:12:53.547Z,48.37
2022-10-30T03:15:22.478Z,48.20
2022-10-30T03:17:52.973Z,48.49
2022-10-30T03:20:21.517Z,48.75
2022-10-30T03:22:49.716Z,48.77
2022-10-30T03:25:23.885Z,48.91
2022-10-30T03:27:56.128Z,48.99
2022-10-30T03:30:24.493Z,49.13
2022-10-30T03:32:52.592Z,49.19
2022-10-30T03:35:21.739Z,49.31
2022-10-30T03:37:49.940Z,49.18
2022-10-30T03:40:19.609Z,48.93
2022-10-30T03:42:47.787Z,49.30
2022-10-30T03:45:16.248Z,49.55
2022-10-30T03:47:44.310Z,49.82
2022-10-30T03:50:12.423Z,49.67
2022-10-30T03:52:40.476Z,49.83
2022-10-30T03:55:09.281Z,49.90
2022-10-30T03:57:40.961Z,49.69
2022-10-30T04:00:18.642Z,49.55
2022-10-30T04:03:01.142Z,49.48
2022-10-30T04:05:31.875Z,49.66
2022-10-30T04:08:07.731Z,49.80
2022-10-30T04:10:38.158Z,49.78
2022-10-30T04:13:12.926Z,49.70
2022-10-30T04:15:56.344Z,49.89
2022-10-30T04:18:27.083Z,50.11
2022-10-30T04:20:56.225Z,49.82
2022-10-30T04:23:24.326Z,49.86
2022-10-30T04:25:52.526Z,49.67
2022-10-30T04:28:21.699Z,49.67
2022-10-30T04:30:49.873Z,49.70
2022-10-30T04:33:19.036Z,49.34
2022-10-30T04:35:47.237Z,49.17
2022-10-30T04:38:21.458Z,49.49
2022-10-30T04:40:50.002Z,49.18
2022-10-30T04:43:19.188Z,49.40
2022-10-30T04:45:50.968Z,49.29
2022-10-30T04:48:19.770Z,49.29
2022-10-30T04:50:49.059Z,49.43
2022-10-30T04:53:26.020Z,49.21
2022-10-30T04:56:01.058Z,49.39
2022-10-30T04:58:29.742Z,49.17
2022-10-30T05:01:09.378Z,49.14
2022-10-30T05:03:38.656Z,48.91
2022-10-30T05:06:30.470Z,49.16
2022-10-30T05:08:59.296Z,49.14
2022-10-30T05:11:39.472Z,49.06
2022-10-30T05:14:09.403Z,49.03
2022-10-30T05:16:38.898Z,48.78
2022-10-30T05:19:07.588Z,48.84
2022-10-30T05:21:36.483Z,49.08
2022-10-30T05:24:05.911Z,48.97
2022-10-30T05:26:41.920Z,48.81
2022-10-30T05:29:10.117Z,48.64
2022-10-30T05:31:40.574Z,48.59
2022-10-30T05:34:17.796Z,48.51
2022-10-30T05:36:48.642Z,48.56
2022-10-30T05:39:17.447Z,48.54
2022-10-30T05:41:49.102Z,48.28
2022-10-30T05:44:29.209Z,48.31
2022-10-30T05:47:03.150Z,48.31
2022-10-30T05:49:34.500Z,48.61
2022-10-30T05:52:05.556Z,48.67
2022-10-30T05:54:34.116Z,48.56
2022-10-30T05:57:08.918Z,48.31
2022-10-30T05:59:40.030Z,48.18
2022-10-30T06:02:09.032Z,48.25
2022-10-30T06:04:37.844Z,48.04
2022-10-30T06:07:11.455Z,47.73
2022-10-30T06:09:39.670Z,47.92
2022-10-30T06:12:27.894Z,47.71
2022-10-30T06:15:06.435Z,47.75
2022-10-30T06:17:34.498Z,47.45
2022-10-30T06:20:17.014Z,47.33
2022-10-30T06:22:57.783Z,47.45
2022-10-30T06:25:37.741Z,47.34
2022-10-30T06:28:31.535Z,47.55
2022-10-30T06:30:59.859Z,47.87
2022-10-30T06:33:28.304Z,47.89
2022-10-30T06:35:56.744Z,47.62
2022-10-30T06:38:24.942Z,47.69
2022-10-30T06:40:54.801Z,47.71
2022-10-30T06:43:41.635Z,47.72
2022-10-30T06:46:32.431Z,47.91
2022-10-30T06:49:02.128Z,48.11
2022-10-30T06:51:32.159Z,48.04
2022-10-30T06:54:01.430Z,48.29
2022-10-30T06:56:51.953Z,48.36
2022-10-30T06:59:50.265Z,48.12
2022-10-30T07:02:38.503Z,48.53
2022-10-30T07:05:10.677Z,48.38
2022-10-30T07:07:40.547Z,48.60
2022-10-30T07:10:10.189Z,48.50
2022-10-30T07:13:04.312Z,48.42
2022-10-30T07:15:45.266Z,48.62
2022-10-30T07:18:22.920Z,49.08
2022-10-30T07:20:57.027Z,49.18
2022-10-30T07:23:25.802Z,49.33
2022-10-30T07:26:03.732Z,49.21
2022-10-30T07:28:43.954Z,48.99
2022-10-30T07:31:34.818Z,49.28
2022-10-30T07:34:32.293Z,48.93
2022-10-30T07:37:18.977Z,48.97
2022-10-30T07:39:59.079Z,49.22
2022-10-30T07:42:46.226Z,49.06
2022-10-30T07:45:34.365Z,49.08
2022-10-30T07:48:40.960Z,49.05
2022-10-30T07:51:20.214Z,48.70
2022-10-30T07:53:48.395Z,48.50
2022-10-30T07:56:16.954Z,48.21
2022-10-30T07:58:54.162Z,48.46
2022-10-30T08:01:38.596Z,48.55
2022-10-30T08:04:28.008Z,48.54
2022-10-30T08:07:01.244Z,48.80
2022-10-30T08:09:30.786Z,48.89
2022-10-30T08:11:58.852Z,49.81
2022-10-30T08:14:27.200Z,50.47
2022-10-30T08:16:57.295Z,50.50
2022-10-30T08:19:25.524Z,50.88
2022-10-30T08:21:59.190Z,50.94
2022-10-30T08:24:28.525Z,50.77
2022-10-30T08:26:59.945Z,50.82
2022-10-30T08:29:28.886Z,50.95
2022-10-30T08:31:57.910Z,51.05
2022-10-30T08:34:27.678Z,51.00
2022-10-30T08:36:57.694Z,51.49
2022-10-30T08:39:26.020Z,51.92
2022-10-30T08:42:17.479Z,51.76
2022-10-30T08:44:46.282Z,51.88
2022-10-30T08:47:26.124Z,51.66
2022-10-30T08:49:54.348Z,51.62
2022-10-30T08:52:26.250Z,51.82
2022-10-30T08:54:57.954Z,52.05
2022-10-30T08:57:28.416Z,52.60
2022-10-30T08:59:58.445Z,52.75
2022-10-30T09:02:55.855Z,52.75
2022-10-30T09:05:53.672Z,52.88
2022-10-30T09:08:22.065Z,53.23
2022-10-30T09:11:04.201Z,53.22
2022-10-30T09:13:33.501Z,53.05
2022-10-30T09:16:04.076Z,53.07
2022-10-30T09:18:35.034Z,53.26
2022-10-30T09:21:05.066Z,53.56
2022-10-30T09:23:39.140Z,53.78
2022-10-30T09:26:30.003Z,54.24
2022-10-30T09:29:18.387Z,54.16
2022-10-30T09:32:15.488Z,54.06
2022-10-30T09:34:53.543Z,53.82
2022-10-30T09:37:27.621Z,54.10
2022-10-30T09:40:00.618Z,53.74
2022-10-30T09:42:44.969Z,53.97
2022-10-30T09:45:42.640Z,53.59
2022-10-30T09:48:23.684Z,53.66
2022-10-30T09:55:41.798Z,54.07
2022-10-30T09:58:34.353Z,53.92
2022-10-30T10:01:29.474Z,53.67
2022-10-30T10:04:28.739Z,53.92
2022-10-30T10:07:30.523Z,53.80
2022-10-30T10:10:53.445Z,53.75
2022-10-30T10:13:38.591Z,53.45
2022-10-30T10:16:21.314Z,53.58
2022-10-30T10:19:07.974Z,53.67
2022-10-30T10:22:08.218Z,53.49
2022-10-30T10:24:44.585Z,53.40
2022-10-30T10:27:38.823Z,52.92
2022-10-30T10:30:20.492Z,53.14
2022-10-30T10:33:10.302Z,52.76
2022-10-30T10:36:22.031Z,52.82
2022-10-30T10:39:07.752Z,52.71
2022-10-30T10:42:03.198Z,52.53
2022-10-30T10:44:39.939Z,52.56
2022-10-30T10:47:44.843Z,52.71
2022-10-30T10:50:26.493Z,52.75
2022-10-30T10:53:09.824Z,52.06
2022-10-30T10:55:40.050Z,51.98
2022-10-30T10:58:23.390Z,52.11
2022-10-30T11:00:53.015Z,51.63
2022-10-30T11:03:35.160Z,51.79
2022-10-30T11:06:27.465Z,51.74
2022-10-30T11:09:14.045Z,51.34
2022-10-30T11:11:45.270Z,51.56
2022-10-30T11:14:31.548Z,51.54
2022-10-30T11:17:18.371Z,51.26
2022-10-30T11:19:51.813Z,51.32
2022-10-30T11:22:43.221Z,51.34
2022-10-30T11:25:26.918Z,51.06
2022-10-30T11:28:02.304Z,50.79
2022-10-30T11:30:30.843Z,50.96
2022-10-30T11:33:19.931Z,50.62
2022-10-30T11:35:48.035Z,50.35
2022-10-30T11:38:22.342Z,50.06
2022-10-30T11:40:52.973Z,49.75
2022-10-30T11:43:25.700Z,49.76
2022-10-30T11:45:54.625Z,49.54
2022-10-30T11:48:31.698Z,49.73
2022-10-30T11:51:02.365Z,49.34
2022-10-30T11:53:49.247Z,49.30
2022-10-30T11:56:21.897Z,49.16
2022-10-30T11:59:03.535Z,49.53
2022-10-30T12:01:36.328Z,49.29
2022-10-30T12:04:21.639Z,49.50
2022-10-30T12:07:26.440Z,49.64
2022-10-30T12:09:54.550Z,49.49
2022-10-30T12:12:29.564Z,49.38
2022-10-30T12:15:14.220Z,49.50
2022-10-30T12:18:02.219Z,49.42
2022-10-30T12:20:30.773Z,49.06
2022-10-30T12:22:59.201Z,48.78
2022-10-30T12:25:31.144Z,48.93
2022-10-30T12:28:18.187Z,48.98
2022-10-30T12:31:23.709Z,48.99
2022-10-30T12:34:18.435Z,48.75
2022-10-30T12:36:56.835Z,48.70
2022-10-30T12:39:38.351Z,48.72
2022-10-30T12:42:14.836Z,48.37
2022-10-30T12:44:53.146Z,47.96
2022-10-30T12:47:34.286Z,47.14
2022-10-30T12:50:16.036Z,46.90
2022-10-30T12:53:27.206Z,47.79
2022-10-30T12:56:26.128Z,47.67
2022-10-30T12:59:53.870Z,47.10
2022-10-30T13:02:40.445Z,46.60
2022-10-30T13:05:28.536Z,46.93
2022-10-30T13:08:51.019Z,47.22
2022-10-30T13:11:36.947Z,47.59
2022-10-30T13:14:16.464Z,47.97
2022-10-30T13:16:44.779Z,47.62
2022-10-30T13:19:14.071Z,47.56
2022-10-30T13:21:53.154Z,47.40
2022-10-30T13:24:31.700Z,47.43
2022-10-30T13:27:07.707Z,47.28
2022-10-30T13:29:54.739Z,47.40
2022-10-30T13:32:41.369Z,47.05
2022-10-30T13:35:26.286Z,46.90
2022-10-30T13:38:19.950Z,47.22
2022-10-30T13:41:00.752Z,46.98
2022-10-30T13:44:32.436Z,47.04
2022-10-30T13:47:59.868Z,46.79
2022-10-30T13:50:40.242Z,46.23
2022-10-30T13:53:19.708Z,46.10
2022-10-30T13:55:49.829Z,46.25
2022-10-30T13:58:29.219Z,46.24
2022-10-30T14:01:31.329Z,46.61
2022-10-30T14:04:19.619Z,46.39
2022-10-30T14:07:10.842Z,46.18
2022-10-30T14:10:13.799Z,46.47
2022-10-30T14:12:55.388Z,46.49
2022-10-30T14:15:42.548Z,46.27
2022-10-30T14:18:13.290Z,46.43
2022-10-30T14:20:55.852Z,46.49
2022-10-30T14:23:35.722Z,46.28
2022-10-30T14:26:04.137Z,46.09
2022-10-30T14:28:38.239Z,46.23
2022-10-30T14:31:18.661Z,46.38
2022-10-30T14:33:55.041Z,46.01
2022-10-30T14:36:33.676Z,46.35
2022-10-30T14:39:14.845Z,46.25
2022-10-30T14:42:07.054Z,46.19
2022-10-30T14:44:59.374Z,46.55
2022-10-30T14:47:27.330Z,46.42
2022-10-30T14:50:01.302Z,46.65
2022-10-30T14:52:43.163Z,46.78
2022-10-30T14:55:32.281Z,46.81
2022-10-30T14:58:03.338Z,46.73
2022-10-30T15:00:35.034Z,46.97
2022-10-30T15:03:36.597Z,46.87
2022-10-30T15:06:42.458Z,47.22
2022-10-30T15:09:29.159Z,46.90
2022-10-30T15:12:24.526Z,47.13
2022-10-30T15:15:03.123Z,47.23
2022-10-30T15:17:39.588Z,47.15
2022-10-30T15:20:18.375Z,47.41
2022-10-30T15:22:51.834Z,47.73
2022-10-30T15:25:23.314Z,47.98
2022-10-30T15:27:57.530Z,48.00
2022-10-30T15:30:27.625Z,47.97
2022-10-30T15:32:55.931Z,48.28
2022-10-30T15:35:30.033Z,48.25
2022-10-30T15:38:10.227Z,48.53
2022-10-30T15:40:39.035Z,48.67
2022-10-30T15:43:12.519Z,48.78
2022-10-30T15:45:47.440Z,47.96
2022-10-30T15:48:33.019Z,48.37
2022-10-30T15:51:06.267Z,48.61
2022-10-30T15:53:45.503Z,49.10
2022-10-30T15:57:21.507Z,48.87
2022-10-30T15:59:38.790Z,49.28
2022-10-30T16:02:22.959Z,49.14
2022-10-30T16:04:51.395Z,49.27
2022-10-30T16:07:24.637Z,48.72
2022-10-30T16:09:55.985Z,48.40
2022-10-30T16:12:32.747Z,48.46
2022-10-30T16:15:24.644Z,48.58
2022-10-30T16:18:27.795Z,48.79
2022-10-30T16:21:03.070Z,48.56
2022-10-30T16:23:37.278Z,48.95
2022-10-30T16:26:05.846Z,48.75
2022-10-30T16:28:36.079Z,48.75
2022-10-30T16:31:08.349Z,48.81
2022-10-30T16:33:37.532Z,48.84
2022-10-30T16:36:07.504Z,48.92
2022-10-30T16:38:37.768Z,48.99
2022-10-30T16:41:12.315Z,49.19
2022-10-30T16:44:04.777Z,49.79
2022-10-30T16:46:53.356Z,50.26
2022-10-30T16:49:30.464Z,51.20
2022-10-30T16:52:07.761Z,51.56
2022-10-30T16:54:42.106Z,52.02
2022-10-30T16:57:27.805Z,52.08
2022-10-30T16:59:57.832Z,52.78
2022-10-30T17:02:35.205Z,52.50
2022-10-30T17:05:35.255Z,52.10
2022-10-30T17:08:39.960Z,52.14
2022-10-30T17:11:18.850Z,52.69
2022-10-30T17:13:59.042Z,52.80
2022-10-30T17:16:31.666Z,52.84
2022-10-30T17:19:31.683Z,52.37
2022-10-30T17:22:04.431Z,52.74
2022-10-30T17:24:36.018Z,52.73
2022-10-30T17:27:29.300Z,53.03
2022-10-30T17:29:57.479Z,53.49
2022-10-30T17:32:29.283Z,53.45
2022-10-30T17:35:18.268Z,53.27
2022-10-30T17:37:46.688Z,53.55
2022-10-30T17:40:15.752Z,53.38
2022-10-30T17:42:43.955Z,53.81
2022-10-30T17:45:15.758Z,53.87
2022-10-30T17:47:43.844Z,53.84
2022-10-30T17:50:12.403Z,54.12
2022-10-30T17:52:40.460Z,53.83
2022-10-30T17:55:25.823Z,53.68
2022-10-30T17:57:53.907Z,54.24
2022-10-30T18:00:22.013Z,54.28
2022-10-30T18:02:50.191Z,54.48
2022-10-30T18:05:22.713Z,54.27
2022-10-30T18:10:23.819Z,54.58
2022-10-30T18:12:51.880Z,55.04
2022-10-30T18:15:46.366Z,54.73
2022-10-30T18:18:14.470Z,54.84
2022-10-30T18:20:42.676Z,54.77
2022-10-30T18:26:28.013Z,54.41
2022-10-30T18:28:56.115Z,54.91
2022-10-30T18:31:25.024Z,55.04
2022-10-30T18:33:53.341Z,54.44
2022-10-30T18:36:24.783Z,54.71
2022-10-30T18:38:54.690Z,54.74
2022-10-30T18:41:34.630Z,55.08
2022-10-30T18:44:03.554Z,55.08
2022-10-30T18:46:33.678Z,54.89
2022-10-30T18:49:01.913Z,54.72
2022-10-30T18:51:29.987Z,54.94
2022-10-30T18:53:58.401Z,54.73
2022-10-30T18:56:29.969Z,55.10
2022-10-30T18:59:02.294Z,55.04
2022-10-30T19:01:32.480Z,55.06
2022-10-30T19:04:02.454Z,55.07
2022-10-30T19:06:31.089Z,54.90
2022-10-30T19:08:59.258Z,55.29
2022-10-30T19:11:30.220Z,55.45
2022-10-30T19:14:00.247Z,55.40
2022-10-30T19:16:29.163Z,55.61
2022-10-30T19:18:57.478Z,55.33
2022-10-30T19:21:26.530Z,55.76
2022-10-30T19:24:06.952Z,55.13
2022-10-30T19:26:35.177Z,55.11
2022-10-30T19:29:03.255Z,55.03
2022-10-30T19:31:31.324Z,55.59
2022-10-30T19:33:59.662Z,55.67
2022-10-30T19:36:37.604Z,55.65
2022-10-30T19:39:14.437Z,54.99
2022-10-30T19:41:42.746Z,54.72
2022-10-30T19:44:11.198Z,54.85
2022-10-30T19:46:39.254Z,54.95
2022-10-30T19:49:25.246Z,55.73
2022-10-30T19:51:53.660Z,56.44
2022-10-30T19:54:21.764Z,56.70
2022-10-30T19:56:49.829Z,56.62
2022-10-30T19:59:18.026Z,56.99
2022-10-30T20:01:46.186Z,56.96
2022-10-30T20:04:14.451Z,56.94
2022-10-30T20:06:42.633Z,56.90
2022-10-30T20:09:13.497Z,56.64
2022-10-30T20:11:41.557Z,56.58
2022-10-30T20:14:09.663Z,56.58
2022-10-30T20:16:37.724Z,56.34
2022-10-30T20:19:29.354Z,56.15
2022-10-30T20:21:57.416Z,55.94
2022-10-30T20:24:25.732Z,55.84
2022-10-30T20:26:56.595Z,55.79
2022-10-30T20:29:25.396Z,55.69
2022-10-30T20:31:53.578Z,55.44
2022-10-30T20:34:21.686Z,55.27
2022-10-30T20:36:49.745Z,55.17
2022-10-30T20:39:17.851Z,55.04
2022-10-30T20:41:46.026Z,54.94
2022-10-30T20:44:14.144Z,54.98
2022-10-30T20:46:42.312Z,54.62
2022-10-30T20:49:17.229Z,54.49
2022-10-30T20:51:47.751Z,54.40
2022-10-30T20:54:15.829Z,54.52
2022-10-30T20:56:43.910Z,54.35
2022-10-30T20:59:11.989Z,54.08
2022-10-30T21:01:40.196Z,54.16
2022-10-30T21:04:08.391Z,53.86
2022-10-30T21:06:36.452Z,53.60
2022-10-30T21:09:04.673Z,53.75
2022-10-30T21:11:32.881Z,53.70
2022-10-30T21:14:00.973Z,53.77
2022-10-30T21:16:29.027Z,53.52
2022-10-30T21:18:57.123Z,53.55
2022-10-30T21:21:26.041Z,53.65
2022-10-30T21:23:55.334Z,53.55
2022-10-30T21:26:24.890Z,53.39
2022-10-30T21:28:53.092Z,53.56
2022-10-30T21:31:21.477Z,53.58
2022-10-30T21:33:49.578Z,53.48
2022-10-30T21:36:20.050Z,53.50
2022-10-30T21:38:48.602Z,53.44
2022-10-30T21:41:20.802Z,53.41
2022-10-30T21:43:55.088Z,53.40
2022-10-30T21:46:27.371Z,53.25
2022-10-30T21:48:56.293Z,53.29
2022-10-30T21:51:26.896Z,53.22
2022-10-30T21:53:56.556Z,53.06
2022-10-30T21:56:29.091Z,53.26
2022-10-30T21:59:00.436Z,53.00
2022-10-30T22:01:31.858Z,53.17
2022-10-30T22:04:02.088Z,53.07
2022-10-30T22:06:31.351Z,53.07
2022-10-30T22:09:00.298Z,53.00
2022-10-30T22:11:29.099Z,52.95
2022-10-30T22:13:59.826Z,53.12
2022-10-30T22:16:30.283Z,53.07
2022-10-30T22:18:59.323Z,53.04
2022-10-30T22:21:27.536Z,53.12
2022-10-30T22:23:55.630Z,53.13
2022-10-30T22:26:24.650Z,53.04
2022-10-30T22:28:59.829Z,52.82
2022-10-30T22:31:30.056Z,52.87
2022-10-30T22:34:01.174Z,53.06
2022-10-30T22:36:32.347Z,52.80
2022-10-30T22:39:04.290Z,53.05
2022-10-30T22:41:36.495Z,53.06
2022-10-30T22:44:08.825Z,52.97
2022-10-30T22:46:37.510Z,52.99
2022-10-30T22:49:06.312Z,53.01
2022-10-30T22:51:37.280Z,52.98
2022-10-30T22:54:12.461Z,52.92
2022-10-30T22:56:41.961Z,52.78
2022-10-30T22:59:14.609Z,52.99
2022-10-30T23:01:43.444Z,53.01
2022-10-30T23:04:14.162Z,52.96
2022-10-30T23:06:43.191Z,53.07
2022-10-30T23:09:19.412Z,52.96
2022-10-30T23:11:47.614Z,52.94
2022-10-30T23:14:15.960Z,52.86
2022-10-30T23:16:44.037Z,52.93
2022-10-30T23:19:12.122Z,52.83
2022-10-30T23:21:40.186Z,53.22
2022-10-30T23:24:08.786Z,53.09
2022-10-30T23:26:37.790Z,53.27
2022-10-30T23:29:06.011Z,53.06
2022-10-30T23:31:41.154Z,53.21
2022-10-30T23:34:16.598Z,53.05
2022-10-30T23:36:45.001Z,52.98
2022-10-30T23:39:18.146Z,53.05
2022-10-30T23:41:46.342Z,52.97
2022-10-30T23:44:16.659Z,53.05
2022-10-30T23:46:45.010Z,53.13
2022-10-30T23:49:13.110Z,52.91
2022-10-30T23:51:41.174Z,53.02
2022-10-30T23:54:09.523Z,53.21
2022-10-30T23:56:37.579Z,53.04
2022-10-30T23:59:05.681Z,53.14
